sensor_id;sensor_type;location;lat;lon;timestamp;P1;durP1;ratioP1;P2;durP2;ratioP2
14241;SDS011;7205;50.864;12.766;2022-08-01T00:01:29;3.47;;;3.27;;
14241;SDS011;7205;50.864;12.766;2022-08-01T00:03:56;3.80;;;3.47;;
14241;SDS011;7205;50.864;12.766;2022-08-01T00:06:25;4.23;;;3.47;;
14241;SDS011;7205;50.864;12.766;2022-08-01T00:08:51;3.70;;;3.50;;
14241;SDS011;7205;50.864;12.766;2022-08-01T00:11:18;4.17;;;3.20;;
14241;SDS011;7205;50.864;12.766;2022-08-01T00:13:45;3.40;;;3.20;;
14241;SDS011;7205;50.864;12.766;2022-08-01T00:16:12;3.50;;;3.30;;
14241;SDS011;7205;50.864;12.766;2022-08-01T00:18:39;3.77;;;3.57;;
14241;SDS011;7205;50.864;12.766;2022-08-01T00:21:06;3.50;;;3.30;;
14241;SDS011;7205;50.864;12.766;2022-08-01T00:23:34;4.00;;;3.70;;
14241;SDS011;7205;50.864;12.766;2022-08-01T00:26:01;3.93;;;3.57;;
14241;SDS011;7205;50.864;12.766;2022-08-01T00:28:28;3.70;;;3.40;;
14241;SDS011;7205;50.864;12.766;2022-08-01T00:30:55;3.90;;;3.70;;
14241;SDS011;7205;50.864;12.766;2022-08-01T00:33:22;3.43;;;3.23;;
14241;SDS011;7205;50.864;12.766;2022-08-01T00:35:49;3.87;;;3.57;;
14241;SDS011;7205;50.864;12.766;2022-08-01T00:38:16;3.87;;;3.67;;
14241;SDS011;7205;50.864;12.766;2022-08-01T00:40:44;3.50;;;3.30;;
14241;SDS011;7205;50.864;12.766;2022-08-01T00:43:11;3.57;;;3.37;;
14241;SDS011;7205;50.864;12.766;2022-08-01T00:45:38;3.13;;;2.70;;
14241;SDS011;7205;50.864;12.766;2022-08-01T00:48:05;3.17;;;2.97;;
14241;SDS011;7205;50.864;12.766;2022-08-01T00:50:32;3.27;;;3.13;;
14241;SDS011;7205;50.864;12.766;2022-08-01T00:52:59;3.10;;;2.90;;
14241;SDS011;7205;50.864;12.766;2022-08-01T00:55:27;3.60;;;3.30;;
14241;SDS011;7205;50.864;12.766;2022-08-01T00:57:56;2.93;;;2.73;;
14241;SDS011;7205;50.864;12.766;2022-08-01T01:00:24;2.90;;;2.70;;
14241;SDS011;7205;50.864;12.766;2022-08-01T01:02:52;3.13;;;2.90;;
14241;SDS011;7205;50.864;12.766;2022-08-01T01:05:19;3.30;;;3.00;;
14241;SDS011;7205;50.864;12.766;2022-08-01T01:07:48;4.27;;;2.77;;
14241;SDS011;7205;50.864;12.766;2022-08-01T01:10:21;4.13;;;2.80;;
14241;SDS011;7205;50.864;12.766;2022-08-01T01:12:59;2.70;;;2.50;;
14241;SDS011;7205;50.864;12.766;2022-08-01T01:15:33;2.73;;;2.50;;
14241;SDS011;7205;50.864;12.766;2022-08-01T01:18:07;3.70;;;2.60;;
14241;SDS011;7205;50.864;12.766;2022-08-01T01:20:38;2.70;;;2.50;;
14241;SDS011;7205;50.864;12.766;2022-08-01T01:23:15;3.33;;;2.50;;
14241;SDS011;7205;50.864;12.766;2022-08-01T01:28:51;2.50;;;2.37;;
14241;SDS011;7205;50.864;12.766;2022-08-01T01:31:24;2.60;;;2.50;;
14241;SDS011;7205;50.864;12.766;2022-08-01T01:33:53;2.17;;;2.07;;
14241;SDS011;7205;50.864;12.766;2022-08-01T01:36:22;2.80;;;2.60;;
14241;SDS011;7205;50.864;12.766;2022-08-01T01:38:52;2.60;;;2.40;;
14241;SDS011;7205;50.864;12.766;2022-08-01T01:41:22;2.53;;;2.40;;
14241;SDS011;7205;50.864;12.766;2022-08-01T01:43:52;2.50;;;2.40;;
14241;SDS011;7205;50.864;12.766;2022-08-01T01:46:20;2.70;;;2.50;;
14241;SDS011;7205;50.864;12.766;2022-08-01T01:48:53;2.60;;;2.50;;
14241;SDS011;7205;50.864;12.766;2022-08-01T01:51:23;3.07;;;2.80;;
14241;SDS011;7205;50.864;12.766;2022-08-01T01:53:52;2.83;;;2.50;;
14241;SDS011;7205;50.864;12.766;2022-08-01T01:56:20;2.70;;;2.43;;
14241;SDS011;7205;50.864;12.766;2022-08-01T01:58:49;2.37;;;2.27;;
14241;SDS011;7205;50.864;12.766;2022-08-01T02:01:20;2.60;;;2.50;;
14241;SDS011;7205;50.864;12.766;2022-08-01T02:03:49;3.10;;;2.90;;
14241;SDS011;7205;50.864;12.766;2022-08-01T02:06:19;3.10;;;2.90;;
14241;SDS011;7205;50.864;12.766;2022-08-01T02:08:48;2.80;;;2.60;;
14241;SDS011;7205;50.864;12.766;2022-08-01T02:11:15;3.00;;;2.80;;
14241;SDS011;7205;50.864;12.766;2022-08-01T02:13:46;2.70;;;2.60;;
14241;SDS011;7205;50.864;12.766;2022-08-01T02:16:19;3.23;;;2.90;;
14241;SDS011;7205;50.864;12.766;2022-08-01T02:18:49;2.73;;;2.53;;
14241;SDS011;7205;50.864;12.766;2022-08-01T02:21:16;2.90;;;2.70;;
14241;SDS011;7205;50.864;12.766;2022-08-01T02:23:48;3.53;;;3.33;;
14241;SDS011;7205;50.864;12.766;2022-08-01T02:26:17;3.40;;;3.20;;
14241;SDS011;7205;50.864;12.766;2022-08-01T02:28:46;3.80;;;2.93;;
14241;SDS011;7205;50.864;12.766;2022-08-01T02:31:16;3.10;;;2.90;;
14241;SDS011;7205;50.864;12.766;2022-08-01T02:33:48;3.40;;;3.20;;
14241;SDS011;7205;50.864;12.766;2022-08-01T02:36:20;3.30;;;3.10;;
14241;SDS011;7205;50.864;12.766;2022-08-01T02:38:49;3.47;;;3.00;;
14241;SDS011;7205;50.864;12.766;2022-08-01T02:41:19;3.50;;;3.20;;
14241;SDS011;7205;50.864;12.766;2022-08-01T02:43:48;3.17;;;2.97;;
14241;SDS011;7205;50.864;12.766;2022-08-01T02:46:21;3.60;;;3.40;;
14241;SDS011;7205;50.864;12.766;2022-08-01T02:48:50;5.03;;;3.53;;
14241;SDS011;7205;50.864;12.766;2022-08-01T02:51:19;3.53;;;3.23;;
14241;SDS011;7205;50.864;12.766;2022-08-01T02:53:49;3.33;;;3.13;;
14241;SDS011;7205;50.864;12.766;2022-08-01T02:56:18;3.63;;;3.30;;
14241;SDS011;7205;50.864;12.766;2022-08-01T02:58:47;3.90;;;3.60;;
14241;SDS011;7205;50.864;12.766;2022-08-01T03:01:16;3.77;;;3.50;;
14241;SDS011;7205;50.864;12.766;2022-08-01T03:03:47;5.13;;;3.77;;
14241;SDS011;7205;50.864;12.766;2022-08-01T03:06:14;4.40;;;4.00;;
14241;SDS011;7205;50.864;12.766;2022-08-01T03:08:43;3.90;;;3.60;;
14241;SDS011;7205;50.864;12.766;2022-08-01T03:11:11;3.67;;;3.37;;
14241;SDS011;7205;50.864;12.766;2022-08-01T03:13:40;4.10;;;3.90;;
14241;SDS011;7205;50.864;12.766;2022-08-01T03:16:09;3.87;;;3.67;;
14241;SDS011;7205;50.864;12.766;2022-08-01T03:18:38;3.67;;;3.40;;
14241;SDS011;7205;50.864;12.766;2022-08-01T03:21:11;3.40;;;3.20;;
14241;SDS011;7205;50.864;12.766;2022-08-01T03:23:40;3.60;;;3.30;;
14241;SDS011;7205;50.864;12.766;2022-08-01T03:26:09;3.97;;;2.67;;
14241;SDS011;7205;50.864;12.766;2022-08-01T03:28:37;3.70;;;3.00;;
14241;SDS011;7205;50.864;12.766;2022-08-01T03:31:05;3.10;;;2.97;;
14241;SDS011;7205;50.864;12.766;2022-08-01T03:33:32;3.27;;;3.07;;
14241;SDS011;7205;50.864;12.766;2022-08-01T03:35:59;3.30;;;3.10;;
14241;SDS011;7205;50.864;12.766;2022-08-01T03:38:29;2.93;;;2.73;;
14241;SDS011;7205;50.864;12.766;2022-08-01T03:41:02;3.30;;;3.00;;
14241;SDS011;7205;50.864;12.766;2022-08-01T03:43:37;5.23;;;2.67;;
14241;SDS011;7205;50.864;12.766;2022-08-01T03:46:07;2.67;;;2.33;;
14241;SDS011;7205;50.864;12.766;2022-08-01T03:48:37;2.33;;;2.23;;
14241;SDS011;7205;50.864;12.766;2022-08-01T03:51:07;2.40;;;2.30;;
14241;SDS011;7205;50.864;12.766;2022-08-01T03:53:36;2.53;;;2.43;;
14241;SDS011;7205;50.864;12.766;2022-08-01T03:56:05;2.90;;;2.70;;
14241;SDS011;7205;50.864;12.766;2022-08-01T03:58:35;3.57;;;2.57;;
14241;SDS011;7205;50.864;12.766;2022-08-01T04:01:05;2.97;;;2.70;;
14241;SDS011;7205;50.864;12.766;2022-08-01T04:03:32;2.40;;;2.30;;
14241;SDS011;7205;50.864;12.766;2022-08-01T04:05:59;3.20;;;2.43;;
14241;SDS011;7205;50.864;12.766;2022-08-01T04:08:38;2.77;;;2.67;;
14241;SDS011;7205;50.864;12.766;2022-08-01T04:11:07;2.90;;;2.70;;
14241;SDS011;7205;50.864;12.766;2022-08-01T04:13:35;2.50;;;2.40;;
14241;SDS011;7205;50.864;12.766;2022-08-01T04:16:02;2.63;;;2.53;;
14241;SDS011;7205;50.864;12.766;2022-08-01T04:18:30;3.03;;;2.60;;
14241;SDS011;7205;50.864;12.766;2022-08-01T04:20:57;3.80;;;2.40;;
14241;SDS011;7205;50.864;12.766;2022-08-01T04:23:24;2.77;;;2.57;;
14241;SDS011;7205;50.864;12.766;2022-08-01T04:25:54;2.60;;;2.40;;
14241;SDS011;7205;50.864;12.766;2022-08-01T04:28:23;2.77;;;2.57;;
14241;SDS011;7205;50.864;12.766;2022-08-01T04:30:52;2.73;;;2.53;;
14241;SDS011;7205;50.864;12.766;2022-08-01T04:33:22;2.70;;;2.60;;
14241;SDS011;7205;50.864;12.766;2022-08-01T04:35:50;3.50;;;3.20;;
14241;SDS011;7205;50.864;12.766;2022-08-01T04:38:19;3.37;;;3.10;;
14241;SDS011;7205;50.864;12.766;2022-08-01T04:40:48;2.93;;;2.83;;
14241;SDS011;7205;50.864;12.766;2022-08-01T04:43:18;5.07;;;2.93;;
14241;SDS011;7205;50.864;12.766;2022-08-01T04:45:45;3.73;;;3.00;;
14241;SDS011;7205;50.864;12.766;2022-08-01T04:48:13;3.70;;;3.50;;
14241;SDS011;7205;50.864;12.766;2022-08-01T04:50:44;3.70;;;3.50;;
14241;SDS011;7205;50.864;12.766;2022-08-01T04:53:12;4.10;;;3.40;;
14241;SDS011;7205;50.864;12.766;2022-08-01T04:55:42;3.50;;;3.30;;
14241;SDS011;7205;50.864;12.766;2022-08-01T04:58:09;3.97;;;3.57;;
14241;SDS011;7205;50.864;12.766;2022-08-01T05:00:38;3.93;;;3.63;;
14241;SDS011;7205;50.864;12.766;2022-08-01T05:03:04;3.60;;;3.40;;
14241;SDS011;7205;50.864;12.766;2022-08-01T05:05:31;3.70;;;3.40;;
14241;SDS011;7205;50.864;12.766;2022-08-01T05:07:58;2.90;;;2.80;;
14241;SDS011;7205;50.864;12.766;2022-08-01T05:10:26;6.33;;;2.90;;
14241;SDS011;7205;50.864;12.766;2022-08-01T05:12:53;2.87;;;2.77;;
14241;SDS011;7205;50.864;12.766;2022-08-01T05:15:20;3.03;;;2.83;;
14241;SDS011;7205;50.864;12.766;2022-08-01T05:17:49;2.93;;;2.43;;
14241;SDS011;7205;50.864;12.766;2022-08-01T05:20:15;4.03;;;2.97;;
14241;SDS011;7205;50.864;12.766;2022-08-01T05:22:42;2.90;;;2.70;;
14241;SDS011;7205;50.864;12.766;2022-08-01T05:25:09;2.80;;;2.70;;
14241;SDS011;7205;50.864;12.766;2022-08-01T05:27:36;2.90;;;2.60;;
14241;SDS011;7205;50.864;12.766;2022-08-01T05:30:05;3.63;;;3.00;;
14241;SDS011;7205;50.864;12.766;2022-08-01T05:32:33;3.00;;;2.80;;
14241;SDS011;7205;50.864;12.766;2022-08-01T05:35:02;2.67;;;2.57;;
14241;SDS011;7205;50.864;12.766;2022-08-01T05:37:30;2.73;;;2.53;;
14241;SDS011;7205;50.864;12.766;2022-08-01T05:39:56;2.90;;;2.77;;
14241;SDS011;7205;50.864;12.766;2022-08-01T05:42:23;2.90;;;2.80;;
14241;SDS011;7205;50.864;12.766;2022-08-01T05:44:50;3.10;;;2.80;;
14241;SDS011;7205;50.864;12.766;2022-08-01T05:47:17;2.77;;;2.57;;
14241;SDS011;7205;50.864;12.766;2022-08-01T05:49:44;3.83;;;2.93;;
14241;SDS011;7205;50.864;12.766;2022-08-01T05:52:13;2.93;;;2.60;;
14241;SDS011;7205;50.864;12.766;2022-08-01T05:54:40;2.93;;;2.60;;
14241;SDS011;7205;50.864;12.766;2022-08-01T05:57:07;3.17;;;2.97;;
14241;SDS011;7205;50.864;12.766;2022-08-01T05:59:34;3.23;;;2.93;;
14241;SDS011;7205;50.864;12.766;2022-08-01T06:02:00;3.53;;;3.23;;
14241;SDS011;7205;50.864;12.766;2022-08-01T06:04:27;2.83;;;2.73;;
14241;SDS011;7205;50.864;12.766;2022-08-01T06:06:54;2.77;;;2.57;;
14241;SDS011;7205;50.864;12.766;2022-08-01T06:09:22;3.10;;;2.80;;
14241;SDS011;7205;50.864;12.766;2022-08-01T06:11:49;2.93;;;2.70;;
14241;SDS011;7205;50.864;12.766;2022-08-01T06:14:16;2.93;;;2.73;;
14241;SDS011;7205;50.864;12.766;2022-08-01T06:16:43;7.10;;;5.57;;
14241;SDS011;7205;50.864;12.766;2022-08-01T06:19:10;2.50;;;2.40;;
14241;SDS011;7205;50.864;12.766;2022-08-01T06:21:37;3.37;;;2.97;;
14241;SDS011;7205;50.864;12.766;2022-08-01T06:24:04;3.73;;;2.93;;
14241;SDS011;7205;50.864;12.766;2022-08-01T06:26:32;2.63;;;2.53;;
14241;SDS011;7205;50.864;12.766;2022-08-01T06:29:00;2.43;;;2.23;;
14241;SDS011;7205;50.864;12.766;2022-08-01T06:31:27;3.93;;;2.50;;
14241;SDS011;7205;50.864;12.766;2022-08-01T06:33:54;2.47;;;2.33;;
14241;SDS011;7205;50.864;12.766;2022-08-01T06:36:22;2.50;;;2.40;;
14241;SDS011;7205;50.864;12.766;2022-08-01T06:38:50;2.20;;;2.10;;
14241;SDS011;7205;50.864;12.766;2022-08-01T06:41:17;2.10;;;2.00;;
14241;SDS011;7205;50.864;12.766;2022-08-01T06:43:45;2.13;;;2.03;;
14241;SDS011;7205;50.864;12.766;2022-08-01T06:46:12;2.43;;;1.80;;
14241;SDS011;7205;50.864;12.766;2022-08-01T06:48:39;3.43;;;1.80;;
14241;SDS011;7205;50.864;12.766;2022-08-01T06:51:07;1.90;;;1.50;;
14241;SDS011;7205;50.864;12.766;2022-08-01T06:53:35;2.10;;;1.90;;
14241;SDS011;7205;50.864;12.766;2022-08-01T06:56:03;3.80;;;1.40;;
14241;SDS011;7205;50.864;12.766;2022-08-01T06:58:31;1.30;;;1.30;;
14241;SDS011;7205;50.864;12.766;2022-08-01T07:01:03;2.43;;;1.50;;
14241;SDS011;7205;50.864;12.766;2022-08-01T07:03:32;2.47;;;1.40;;
14241;SDS011;7205;50.864;12.766;2022-08-01T07:05:59;1.50;;;1.40;;
14241;SDS011;7205;50.864;12.766;2022-08-01T07:08:26;1.60;;;1.50;;
14241;SDS011;7205;50.864;12.766;2022-08-01T07:10:54;1.33;;;1.23;;
14241;SDS011;7205;50.864;12.766;2022-08-01T07:13:26;1.60;;;1.50;;
14241;SDS011;7205;50.864;12.766;2022-08-01T07:15:56;1.50;;;1.50;;
14241;SDS011;7205;50.864;12.766;2022-08-01T07:18:24;2.03;;;1.90;;
14241;SDS011;7205;50.864;12.766;2022-08-01T07:20:51;4.77;;;2.23;;
14241;SDS011;7205;50.864;12.766;2022-08-01T07:23:18;1.80;;;1.70;;
14241;SDS011;7205;50.864;12.766;2022-08-01T07:25:45;2.20;;;2.10;;
14241;SDS011;7205;50.864;12.766;2022-08-01T07:28:13;2.37;;;2.27;;
14241;SDS011;7205;50.864;12.766;2022-08-01T07:30:40;2.77;;;2.50;;
14241;SDS011;7205;50.864;12.766;2022-08-01T07:33:09;2.97;;;2.77;;
14241;SDS011;7205;50.864;12.766;2022-08-01T07:35:38;2.60;;;2.50;;
14241;SDS011;7205;50.864;12.766;2022-08-01T07:38:05;2.67;;;2.57;;
14241;SDS011;7205;50.864;12.766;2022-08-01T07:40:32;3.03;;;2.50;;
14241;SDS011;7205;50.864;12.766;2022-08-01T07:42:59;2.23;;;2.13;;
14241;SDS011;7205;50.864;12.766;2022-08-01T07:45:26;2.83;;;2.63;;
14241;SDS011;7205;50.864;12.766;2022-08-01T07:47:53;2.73;;;2.50;;
14241;SDS011;7205;50.864;12.766;2022-08-01T07:50:21;2.97;;;2.67;;
14241;SDS011;7205;50.864;12.766;2022-08-01T07:52:49;2.60;;;2.47;;
14241;SDS011;7205;50.864;12.766;2022-08-01T07:55:19;3.53;;;2.40;;
14241;SDS011;7205;50.864;12.766;2022-08-01T07:57:46;3.00;;;2.80;;
14241;SDS011;7205;50.864;12.766;2022-08-01T08:00:14;2.93;;;2.70;;
14241;SDS011;7205;50.864;12.766;2022-08-01T08:02:41;3.60;;;3.00;;
14241;SDS011;7205;50.864;12.766;2022-08-01T08:05:09;2.60;;;2.50;;
14241;SDS011;7205;50.864;12.766;2022-08-01T08:07:36;3.23;;;3.03;;
14241;SDS011;7205;50.864;12.766;2022-08-01T08:10:05;2.90;;;2.70;;
14241;SDS011;7205;50.864;12.766;2022-08-01T08:12:32;2.30;;;2.20;;
14241;SDS011;7205;50.864;12.766;2022-08-01T08:14:59;2.27;;;2.17;;
14241;SDS011;7205;50.864;12.766;2022-08-01T08:17:26;3.00;;;2.23;;
14241;SDS011;7205;50.864;12.766;2022-08-01T08:19:53;2.80;;;2.70;;
14241;SDS011;7205;50.864;12.766;2022-08-01T08:22:20;2.90;;;2.70;;
14241;SDS011;7205;50.864;12.766;2022-08-01T08:24:47;2.97;;;2.53;;
14241;SDS011;7205;50.864;12.766;2022-08-01T08:27:15;2.00;;;1.90;;
14241;SDS011;7205;50.864;12.766;2022-08-01T08:29:42;1.93;;;1.83;;
14241;SDS011;7205;50.864;12.766;2022-08-01T08:32:09;2.30;;;1.63;;
14241;SDS011;7205;50.864;12.766;2022-08-01T08:34:36;2.30;;;1.50;;
14241;SDS011;7205;50.864;12.766;2022-08-01T08:37:02;1.40;;;1.40;;
14241;SDS011;7205;50.864;12.766;2022-08-01T08:39:29;1.33;;;1.07;;
14241;SDS011;7205;50.864;12.766;2022-08-01T08:41:57;1.10;;;1.10;;
14241;SDS011;7205;50.864;12.766;2022-08-01T08:44:28;1.20;;;1.20;;
14241;SDS011;7205;50.864;12.766;2022-08-01T08:46:55;1.13;;;1.13;;
14241;SDS011;7205;50.864;12.766;2022-08-01T08:49:26;2.20;;;1.40;;
14241;SDS011;7205;50.864;12.766;2022-08-01T08:51:54;0.90;;;0.90;;
14241;SDS011;7205;50.864;12.766;2022-08-01T08:54:25;1.30;;;1.20;;
14241;SDS011;7205;50.864;12.766;2022-08-01T08:56:53;1.03;;;0.70;;
14241;SDS011;7205;50.864;12.766;2022-08-01T08:59:20;0.87;;;0.80;;
14241;SDS011;7205;50.864;12.766;2022-08-01T09:01:50;0.73;;;0.73;;
14241;SDS011;7205;50.864;12.766;2022-08-01T09:04:17;0.70;;;0.70;;
14241;SDS011;7205;50.864;12.766;2022-08-01T09:06:47;3.60;;;0.93;;
14241;SDS011;7205;50.864;12.766;2022-08-01T09:09:14;2.47;;;1.00;;
14241;SDS011;7205;50.864;12.766;2022-08-01T09:11:41;0.70;;;0.70;;
14241;SDS011;7205;50.864;12.766;2022-08-01T09:14:09;2.58;;;1.05;;
14241;SDS011;7205;50.864;12.766;2022-08-01T09:16:39;0.90;;;0.90;;
14241;SDS011;7205;50.864;12.766;2022-08-01T09:19:11;1.25;;;1.10;;
14241;SDS011;7205;50.864;12.766;2022-08-01T09:21:40;1.37;;;0.80;;
14241;SDS011;7205;50.864;12.766;2022-08-01T09:24:21;0.93;;;0.93;;
14241;SDS011;7205;50.864;12.766;2022-08-01T09:26:48;2.23;;;1.10;;
14241;SDS011;7205;50.864;12.766;2022-08-01T09:29:19;3.57;;;1.43;;
14241;SDS011;7205;50.864;12.766;2022-08-01T09:31:47;1.17;;;1.17;;
14241;SDS011;7205;50.864;12.766;2022-08-01T09:34:16;3.10;;;1.30;;
14241;SDS011;7205;50.864;12.766;2022-08-01T09:36:50;1.30;;;1.20;;
14241;SDS011;7205;50.864;12.766;2022-08-01T09:39:20;2.35;;;1.20;;
14241;SDS011;7205;50.864;12.766;2022-08-01T09:41:47;1.13;;;0.95;;
14241;SDS011;7205;50.864;12.766;2022-08-01T09:44:16;1.58;;;1.00;;
14241;SDS011;7205;50.864;12.766;2022-08-01T09:46:50;1.02;;;0.82;;
14241;SDS011;7205;50.864;12.766;2022-08-01T09:49:30;0.80;;;0.80;;
14241;SDS011;7205;50.864;12.766;2022-08-01T09:51:59;3.83;;;0.80;;
14241;SDS011;7205;50.864;12.766;2022-08-01T09:54:36;0.50;;;0.50;;
14241;SDS011;7205;50.864;12.766;2022-08-01T09:57:12;0.70;;;0.65;;
14241;SDS011;7205;50.864;12.766;2022-08-01T09:59:41;0.85;;;0.70;;
14241;SDS011;7205;50.864;12.766;2022-08-01T10:02:11;1.10;;;0.65;;
14241;SDS011;7205;50.864;12.766;2022-08-01T10:04:48;0.60;;;0.60;;
14241;SDS011;7205;50.864;12.766;2022-08-01T10:07:16;0.75;;;0.70;;
14241;SDS011;7205;50.864;12.766;2022-08-01T10:09:45;0.60;;;0.60;;
14241;SDS011;7205;50.864;12.766;2022-08-01T10:12:13;3.58;;;1.38;;
14241;SDS011;7205;50.864;12.766;2022-08-01T10:14:41;0.50;;;0.50;;
14241;SDS011;7205;50.864;12.766;2022-08-01T10:17:11;0.40;;;0.40;;
14241;SDS011;7205;50.864;12.766;2022-08-01T10:19:39;0.50;;;0.50;;
14241;SDS011;7205;50.864;12.766;2022-08-01T10:22:10;0.40;;;0.40;;
14241;SDS011;7205;50.864;12.766;2022-08-01T10:24:39;1.17;;;0.60;;
14241;SDS011;7205;50.864;12.766;2022-08-01T10:27:07;0.60;;;0.45;;
14241;SDS011;7205;50.864;12.766;2022-08-01T10:29:36;0.57;;;0.57;;
14241;SDS011;7205;50.864;12.766;2022-08-01T10:32:06;0.30;;;0.30;;
14241;SDS011;7205;50.864;12.766;2022-08-01T10:34:35;0.43;;;0.43;;
14241;SDS011;7205;50.864;12.766;2022-08-01T10:37:03;0.40;;;0.40;;
14241;SDS011;7205;50.864;12.766;2022-08-01T10:39:32;0.47;;;0.47;;
14241;SDS011;7205;50.864;12.766;2022-08-01T10:42:00;1.20;;;0.60;;
14241;SDS011;7205;50.864;12.766;2022-08-01T10:44:30;0.50;;;0.47;;
14241;SDS011;7205;50.864;12.766;2022-08-01T10:46:59;0.75;;;0.38;;
14241;SDS011;7205;50.864;12.766;2022-08-01T10:49:30;1.45;;;0.63;;
14241;SDS011;7205;50.864;12.766;2022-08-01T10:52:01;0.50;;;0.50;;
14241;SDS011;7205;50.864;12.766;2022-08-01T10:54:29;1.17;;;0.60;;
14241;SDS011;7205;50.864;12.766;2022-08-01T10:57:06;0.68;;;0.68;;
14241;SDS011;7205;50.864;12.766;2022-08-01T10:59:35;0.50;;;0.50;;
14241;SDS011;7205;50.864;12.766;2022-08-01T11:02:13;0.90;;;0.68;;
14241;SDS011;7205;50.864;12.766;2022-08-01T11:04:54;1.98;;;0.50;;
14241;SDS011;7205;50.864;12.766;2022-08-01T11:07:23;0.95;;;0.95;;
14241;SDS011;7205;50.864;12.766;2022-08-01T11:10:10;3.05;;;1.42;;
14241;SDS011;7205;50.864;12.766;2022-08-01T11:12:46;8.75;;;4.72;;
14241;SDS011;7205;50.864;12.766;2022-08-01T11:15:20;0.88;;;0.80;;
14241;SDS011;7205;50.864;12.766;2022-08-01T11:17:57;0.70;;;0.65;;
14241;SDS011;7205;50.864;12.766;2022-08-01T11:20:26;0.30;;;0.30;;
14241;SDS011;7205;50.864;12.766;2022-08-01T11:31:41;0.30;;;0.30;;
14241;SDS011;7205;50.864;12.766;2022-08-01T11:34:08;0.30;;;0.30;;
14241;SDS011;7205;50.864;12.766;2022-08-01T11:36:34;1.48;;;0.95;;
14241;SDS011;7205;50.864;12.766;2022-08-01T11:39:12;0.32;;;0.32;;
14241;SDS011;7205;50.864;12.766;2022-08-01T11:41:42;0.98;;;0.50;;
14241;SDS011;7205;50.864;12.766;2022-08-01T11:44:11;1.17;;;0.60;;
14241;SDS011;7205;50.864;12.766;2022-08-01T11:46:47;0.52;;;0.50;;
14241;SDS011;7205;50.864;12.766;2022-08-01T11:49:32;0.60;;;0.40;;
14241;SDS011;7205;50.864;12.766;2022-08-01T11:52:13;0.30;;;0.30;;
14241;SDS011;7205;50.864;12.766;2022-08-01T11:54:43;0.30;;;0.30;;
14241;SDS011;7205;50.864;12.766;2022-08-01T11:57:14;1.75;;;0.20;;
14241;SDS011;7205;50.864;12.766;2022-08-01T11:59:45;0.50;;;0.50;;
14241;SDS011;7205;50.864;12.766;2022-08-01T12:02:18;0.30;;;0.30;;
14241;SDS011;7205;50.864;12.766;2022-08-01T12:04:47;0.57;;;0.30;;
14241;SDS011;7205;50.864;12.766;2022-08-01T12:07:16;0.73;;;0.40;;
14241;SDS011;7205;50.864;12.766;2022-08-01T12:09:44;0.30;;;0.30;;
14241;SDS011;7205;50.864;12.766;2022-08-01T12:12:13;0.50;;;0.30;;
14241;SDS011;7205;50.864;12.766;2022-08-01T12:14:42;1.58;;;0.52;;
14241;SDS011;7205;50.864;12.766;2022-08-01T12:17:10;1.38;;;0.30;;
14241;SDS011;7205;50.864;12.766;2022-08-01T12:19:37;1.55;;;0.50;;
14241;SDS011;7205;50.864;12.766;2022-08-01T12:22:10;0.90;;;0.40;;
14241;SDS011;7205;50.864;12.766;2022-08-01T12:24:39;0.50;;;0.40;;
14241;SDS011;7205;50.864;12.766;2022-08-01T12:27:07;0.70;;;0.70;;
14241;SDS011;7205;50.864;12.766;2022-08-01T12:29:38;0.32;;;0.30;;
14241;SDS011;7205;50.864;12.766;2022-08-01T12:32:22;0.25;;;0.25;;
14241;SDS011;7205;50.864;12.766;2022-08-01T12:34:51;1.65;;;0.50;;
14241;SDS011;7205;50.864;12.766;2022-08-01T12:37:19;0.30;;;0.30;;
14241;SDS011;7205;50.864;12.766;2022-08-01T12:39:57;0.73;;;0.32;;
14241;SDS011;7205;50.864;12.766;2022-08-01T12:42:24;0.30;;;0.30;;
14241;SDS011;7205;50.864;12.766;2022-08-01T12:44:51;0.20;;;0.20;;
14241;SDS011;7205;50.864;12.766;2022-08-01T12:47:19;0.47;;;0.30;;
14241;SDS011;7205;50.864;12.766;2022-08-01T12:49:47;1.35;;;0.30;;
14241;SDS011;7205;50.864;12.766;2022-08-01T12:52:15;1.20;;;0.20;;
14241;SDS011;7205;50.864;12.766;2022-08-01T12:55:05;1.95;;;0.40;;
14241;SDS011;7205;50.864;12.766;2022-08-01T12:57:38;0.20;;;0.20;;
14241;SDS011;7205;50.864;12.766;2022-08-01T13:00:10;0.20;;;0.20;;
14241;SDS011;7205;50.864;12.766;2022-08-01T13:02:42;2.15;;;0.38;;
14241;SDS011;7205;50.864;12.766;2022-08-01T13:05:13;0.77;;;0.30;;
14241;SDS011;7205;50.864;12.766;2022-08-01T13:07:42;0.90;;;0.30;;
14241;SDS011;7205;50.864;12.766;2022-08-01T13:10:12;0.20;;;0.20;;
14241;SDS011;7205;50.864;12.766;2022-08-01T13:12:50;1.60;;;0.30;;
14241;SDS011;7205;50.864;12.766;2022-08-01T13:15:22;0.68;;;0.20;;
14241;SDS011;7205;50.864;12.766;2022-08-01T13:17:56;0.20;;;0.20;;
14241;SDS011;7205;50.864;12.766;2022-08-01T13:20:31;0.38;;;0.30;;
14241;SDS011;7205;50.864;12.766;2022-08-01T13:23:10;0.30;;;0.30;;
14241;SDS011;7205;50.864;12.766;2022-08-01T13:25:47;0.20;;;0.20;;
14241;SDS011;7205;50.864;12.766;2022-08-01T13:28:16;0.20;;;0.20;;
14241;SDS011;7205;50.864;12.766;2022-08-01T13:30:54;0.20;;;0.20;;
14241;SDS011;7205;50.864;12.766;2022-08-01T13:33:23;1.45;;;0.35;;
14241;SDS011;7205;50.864;12.766;2022-08-01T13:35:51;0.35;;;0.30;;
14241;SDS011;7205;50.864;12.766;2022-08-01T13:38:19;1.48;;;0.30;;
14241;SDS011;7205;50.864;12.766;2022-08-01T13:41:07;0.82;;;0.50;;
14241;SDS011;7205;50.864;12.766;2022-08-01T13:43:34;1.02;;;0.30;;
14241;SDS011;7205;50.864;12.766;2022-08-01T13:46:01;1.55;;;0.30;;
14241;SDS011;7205;50.864;12.766;2022-08-01T13:48:29;0.40;;;0.40;;
14241;SDS011;7205;50.864;12.766;2022-08-01T13:50:57;0.50;;;0.30;;
14241;SDS011;7205;50.864;12.766;2022-08-01T13:53:24;1.17;;;0.20;;
14241;SDS011;7205;50.864;12.766;2022-08-01T13:55:52;0.32;;;0.30;;
14241;SDS011;7205;50.864;12.766;2022-08-01T13:58:20;0.82;;;0.35;;
14241;SDS011;7205;50.864;12.766;2022-08-01T14:00:47;2.15;;;0.70;;
14241;SDS011;7205;50.864;12.766;2022-08-01T14:03:14;0.50;;;0.28;;
14241;SDS011;7205;50.864;12.766;2022-08-01T14:05:41;0.88;;;0.30;;
14241;SDS011;7205;50.864;12.766;2022-08-01T14:08:09;0.20;;;0.20;;
14241;SDS011;7205;50.864;12.766;2022-08-01T14:10:36;0.88;;;0.40;;
14241;SDS011;7205;50.864;12.766;2022-08-01T14:13:03;0.80;;;0.30;;
14241;SDS011;7205;50.864;12.766;2022-08-01T14:15:32;0.43;;;0.43;;
14241;SDS011;7205;50.864;12.766;2022-08-01T14:18:01;0.20;;;0.20;;
14241;SDS011;7205;50.864;12.766;2022-08-01T14:20:30;0.47;;;0.30;;
14241;SDS011;7205;50.864;12.766;2022-08-01T14:22:58;1.45;;;0.30;;
14241;SDS011;7205;50.864;12.766;2022-08-01T14:25:25;0.77;;;0.40;;
14241;SDS011;7205;50.864;12.766;2022-08-01T14:27:52;0.38;;;0.38;;
14241;SDS011;7205;50.864;12.766;2022-08-01T14:30:19;0.30;;;0.30;;
14241;SDS011;7205;50.864;12.766;2022-08-01T14:32:48;0.80;;;0.40;;
14241;SDS011;7205;50.864;12.766;2022-08-01T14:35:15;0.20;;;0.20;;
14241;SDS011;7205;50.864;12.766;2022-08-01T14:37:41;1.40;;;0.30;;
14241;SDS011;7205;50.864;12.766;2022-08-01T14:40:13;0.50;;;0.50;;
14241;SDS011;7205;50.864;12.766;2022-08-01T14:42:39;0.82;;;0.40;;
14241;SDS011;7205;50.864;12.766;2022-08-01T14:45:09;1.42;;;0.40;;
14241;SDS011;7205;50.864;12.766;2022-08-01T14:47:40;0.40;;;0.30;;
14241;SDS011;7205;50.864;12.766;2022-08-01T14:50:11;0.20;;;0.20;;
14241;SDS011;7205;50.864;12.766;2022-08-01T14:52:39;0.65;;;0.30;;
14241;SDS011;7205;50.864;12.766;2022-08-01T14:55:07;0.35;;;0.32;;
14241;SDS011;7205;50.864;12.766;2022-08-01T14:57:35;2.88;;;0.40;;
14241;SDS011;7205;50.864;12.766;2022-08-01T15:00:04;0.30;;;0.30;;
14241;SDS011;7205;50.864;12.766;2022-08-01T15:02:35;0.20;;;0.20;;
14241;SDS011;7205;50.864;12.766;2022-08-01T15:05:02;0.25;;;0.25;;
14241;SDS011;7205;50.864;12.766;2022-08-01T15:07:30;0.38;;;0.38;;
14241;SDS011;7205;50.864;12.766;2022-08-01T15:09:57;0.30;;;0.30;;
14241;SDS011;7205;50.864;12.766;2022-08-01T15:12:25;0.47;;;0.38;;